sensor_id;sensor_type;location;lat;lon;timestamp;pressure;altitude;pressure_sealevel;temperature;humidity
69713;BME280;56980;51.826;4.424;2022-09-09T00:02:05;100839.97;;;18.28;72.68
69713;BME280;56980;51.826;4.424;2022-09-09T00:04:41;100835.47;;;18.25;72.86
69713;BME280;56980;51.826;4.424;2022-09-09T00:07:16;100825.28;;;18.31;72.37
69713;BME280;56980;51.826;4.424;2022-09-09T00:15:20;100814.00;;;18.17;73.08
69713;BME280;56980;51.826;4.424;2022-09-09T00:20:49;100812.41;;;18.05;73.13
69713;BME280;56980;51.826;4.424;2022-09-09T00:23:34;100806.69;;;18.09;73.18
69713;BME280;56980;51.826;4.424;2022-09-09T00:26:11;100817.97;;;18.16;72.87
69713;BME280;56980;51.826;4.424;2022-09-09T00:28:52;100816.41;;;18.04;72.82
69713;BME280;56980;51.826;4.424;2022-09-09T00:31:26;100823.38;;;18.05;73.16
69713;BME280;56980;51.826;4.424;2022-09-09T00:33:53;100798.44;;;18.03;73.07
69713;BME280;56980;51.826;4.424;2022-09-09T00:36:22;100812.69;;;18.13;72.91
69713;BME280;56980;51.826;4.424;2022-09-09T00:38:56;100819.97;;;18.21;72.73
69713;BME280;56980;51.826;4.424;2022-09-09T00:41:26;100823.00;;;18.24;72.70
69713;BME280;56980;51.826;4.424;2022-09-09T00:44:03;100810.72;;;18.19;72.91
69713;BME280;56980;51.826;4.424;2022-09-09T00:47:07;100804.44;;;18.07;72.92
69713;BME280;56980;51.826;4.424;2022-09-09T00:52:39;100806.66;;;18.03;73.16
69713;BME280;56980;51.826;4.424;2022-09-09T00:57:38;100789.78;;;17.79;73.40
69713;BME280;56980;51.826;4.424;2022-09-09T01:03:06;100790.09;;;17.87;74.11
69713;BME280;56980;51.826;4.424;2022-09-09T01:05:46;100766.06;;;17.70;74.10
69713;BME280;56980;51.826;4.424;2022-09-09T01:10:52;100783.84;;;17.86;73.72
69713;BME280;56980;51.826;4.424;2022-09-09T01:13:30;100785.44;;;17.98;73.53
69713;BME280;56980;51.826;4.424;2022-09-09T01:15:58;100782.44;;;17.96;72.95
69713;BME280;56980;51.826;4.424;2022-09-09T01:18:49;100782.19;;;18.00;72.85
69713;BME280;56980;51.826;4.424;2022-09-09T01:26:48;100783.25;;;18.08;72.52
69713;BME280;56980;51.826;4.424;2022-09-09T01:29:17;100778.50;;;18.03;72.57
69713;BME280;56980;51.826;4.424;2022-09-09T01:31:58;100779.72;;;18.02;72.71
69713;BME280;56980;51.826;4.424;2022-09-09T01:34:29;100775.97;;;17.99;72.51
69713;BME280;56980;51.826;4.424;2022-09-09T01:37:06;100782.16;;;17.94;72.88
69713;BME280;56980;51.826;4.424;2022-09-09T01:39:38;100777.47;;;18.00;72.34
69713;BME280;56980;51.826;4.424;2022-09-09T01:42:06;100778.19;;;17.95;72.31
69713;BME280;56980;51.826;4.424;2022-09-09T01:44:42;100759.69;;;17.85;72.50
69713;BME280;56980;51.826;4.424;2022-09-09T01:47:08;100754.91;;;17.79;72.46
69713;BME280;56980;51.826;4.424;2022-09-09T01:49:33;100755.38;;;17.78;72.45
69713;BME280;56980;51.826;4.424;2022-09-09T01:51:59;100744.19;;;17.76;72.46
69713;BME280;56980;51.826;4.424;2022-09-09T01:54:28;100771.94;;;17.89;72.29
69713;BME280;56980;51.826;4.424;2022-09-09T02:02:33;100759.59;;;17.73;72.86
69713;BME280;56980;51.826;4.424;2022-09-09T02:05:13;100766.66;;;17.86;72.63
69713;BME280;56980;51.826;4.424;2022-09-09T02:07:43;100754.88;;;17.74;73.06
69713;BME280;56980;51.826;4.424;2022-09-09T02:10:29;100758.94;;;17.84;73.08
69713;BME280;56980;51.826;4.424;2022-09-09T02:13:17;100747.44;;;17.80;72.57
69713;BME280;56980;51.826;4.424;2022-09-09T02:16:10;100761.69;;;17.84;72.69
69713;BME280;56980;51.826;4.424;2022-09-09T02:21:07;100733.94;;;17.71;72.86
69713;BME280;56980;51.826;4.424;2022-09-09T02:23:38;100740.66;;;17.70;73.04
69713;BME280;56980;51.826;4.424;2022-09-09T02:26:05;100733.41;;;17.67;73.14
69713;BME280;56980;51.826;4.424;2022-09-09T02:28:33;100728.34;;;17.60;73.01
69713;BME280;56980;51.826;4.424;2022-09-09T02:31:00;100721.34;;;17.59;73.13
69713;BME280;56980;51.826;4.424;2022-09-09T02:33:28;100721.16;;;17.62;72.85
69713;BME280;56980;51.826;4.424;2022-09-09T02:35:56;100719.03;;;17.46;73.11
69713;BME280;56980;51.826;4.424;2022-09-09T02:38:29;100722.41;;;17.61;73.05
69713;BME280;56980;51.826;4.424;2022-09-09T02:40:56;100729.44;;;17.68;72.69
69713;BME280;56980;51.826;4.424;2022-09-09T02:43:23;100727.41;;;17.63;72.66
69713;BME280;56980;51.826;4.424;2022-09-09T02:48:55;100719.84;;;17.58;72.62
69713;BME280;56980;51.826;4.424;2022-09-09T02:54:32;100728.91;;;17.64;72.42
69713;BME280;56980;51.826;4.424;2022-09-09T02:57:04;100727.91;;;17.67;71.86
69713;BME280;56980;51.826;4.424;2022-09-09T02:59:31;100725.41;;;17.63;72.03
69713;BME280;56980;51.826;4.424;2022-09-09T03:01:57;100721.22;;;17.68;71.67
69713;BME280;56980;51.826;4.424;2022-09-09T03:04:22;100718.13;;;17.60;72.01
69713;BME280;56980;51.826;4.424;2022-09-09T03:06:49;100710.47;;;17.33;72.47
69713;BME280;56980;51.826;4.424;2022-09-09T03:09:15;100720.59;;;17.58;71.99
69713;BME280;56980;51.826;4.424;2022-09-09T03:11:40;100712.66;;;17.60;71.88
69713;BME280;56980;51.826;4.424;2022-09-09T03:14:06;100708.72;;;17.61;71.88
69713;BME280;56980;51.826;4.424;2022-09-09T03:16:31;100705.00;;;17.64;71.97
69713;BME280;56980;51.826;4.424;2022-09-09T03:19:00;100711.47;;;17.67;71.98
69713;BME280;56980;51.826;4.424;2022-09-09T03:21:25;100704.25;;;17.64;71.83
69713;BME280;56980;51.826;4.424;2022-09-09T03:23:51;100696.50;;;17.62;71.90
69713;BME280;56980;51.826;4.424;2022-09-09T03:26:16;100695.47;;;17.60;71.76
69713;BME280;56980;51.826;4.424;2022-09-09T03:28:42;100723.94;;;17.68;71.85
69713;BME280;56980;51.826;4.424;2022-09-09T03:31:08;100698.84;;;17.43;72.07
69713;BME280;56980;51.826;4.424;2022-09-09T03:33:38;100719.44;;;17.65;72.12
69713;BME280;56980;51.826;4.424;2022-09-09T03:36:05;100711.91;;;17.60;71.81
69713;BME280;56980;51.826;4.424;2022-09-09T03:38:30;100717.34;;;17.54;71.84
69713;BME280;56980;51.826;4.424;2022-09-09T03:40:57;100720.34;;;17.56;71.78
69713;BME280;56980;51.826;4.424;2022-09-09T03:43:25;100722.34;;;17.56;72.06
69713;BME280;56980;51.826;4.424;2022-09-09T03:45:51;100720.06;;;17.49;72.56
69713;BME280;56980;51.826;4.424;2022-09-09T03:48:17;100706.56;;;17.45;71.82
69713;BME280;56980;51.826;4.424;2022-09-09T03:50:47;100696.13;;;17.43;71.88
69713;BME280;56980;51.826;4.424;2022-09-09T03:53:14;100697.34;;;17.42;72.25
69713;BME280;56980;51.826;4.424;2022-09-09T03:55:47;100698.31;;;17.39;72.25
69713;BME280;56980;51.826;4.424;2022-09-09T03:58:14;100686.84;;;17.35;72.17
69713;BME280;56980;51.826;4.424;2022-09-09T04:00:40;100689.31;;;17.33;72.08
69713;BME280;56980;51.826;4.424;2022-09-09T04:03:11;100672.03;;;17.22;72.04
69713;BME280;56980;51.826;4.424;2022-09-09T04:05:39;100684.41;;;17.12;72.82
69713;BME280;56980;51.826;4.424;2022-09-09T04:08:08;100691.25;;;17.27;72.69
69713;BME280;56980;51.826;4.424;2022-09-09T04:10:34;100682.25;;;17.21;72.73
69713;BME280;56980;51.826;4.424;2022-09-09T04:13:03;100689.72;;;17.21;72.84
69713;BME280;56980;51.826;4.424;2022-09-09T04:15:28;100694.94;;;17.24;73.11
69713;BME280;56980;51.826;4.424;2022-09-09T04:17:54;100682.72;;;17.20;72.85
69713;BME280;56980;51.826;4.424;2022-09-09T04:20:19;100679.16;;;17.08;73.29
69713;BME280;56980;51.826;4.424;2022-09-09T04:22:44;100675.94;;;17.10;73.25
69713;BME280;56980;51.826;4.424;2022-09-09T04:25:10;100673.00;;;17.19;73.30
69713;BME280;56980;51.826;4.424;2022-09-09T04:27:35;100669.28;;;17.16;72.90
69713;BME280;56980;51.826;4.424;2022-09-09T04:30:00;100665.50;;;17.14;72.93
69713;BME280;56980;51.826;4.424;2022-09-09T04:32:26;100666.84;;;17.24;72.97
69713;BME280;56980;51.826;4.424;2022-09-09T04:34:54;100653.81;;;17.13;72.67
69713;BME280;56980;51.826;4.424;2022-09-09T04:37:19;100664.69;;;17.02;73.71
69713;BME280;56980;51.826;4.424;2022-09-09T04:39:45;100659.50;;;17.10;73.64
69713;BME280;56980;51.826;4.424;2022-09-09T04:42:10;100671.72;;;17.14;73.79
69713;BME280;56980;51.826;4.424;2022-09-09T04:44:38;100664.00;;;17.13;73.52
69713;BME280;56980;51.826;4.424;2022-09-09T04:47:03;100651.97;;;17.04;73.78
69713;BME280;56980;51.826;4.424;2022-09-09T04:49:28;100641.28;;;17.01;73.46
69713;BME280;56980;51.826;4.424;2022-09-09T04:51:56;100658.75;;;17.09;73.46
69713;BME280;56980;51.826;4.424;2022-09-09T04:54:21;100652.22;;;17.01;73.96
69713;BME280;56980;51.826;4.424;2022-09-09T04:56:46;100655.22;;;17.03;74.03
69713;BME280;56980;51.826;4.424;2022-09-09T04:59:12;100658.22;;;17.05;73.70
69713;BME280;56980;51.826;4.424;2022-09-09T05:01:37;100633.47;;;16.88;73.45
69713;BME280;56980;51.826;4.424;2022-09-09T05:04:03;100661.22;;;17.07;73.72
69713;BME280;56980;51.826;4.424;2022-09-09T05:06:29;100660.00;;;17.08;74.12
69713;BME280;56980;51.826;4.424;2022-09-09T05:08:56;100659.44;;;17.04;73.98
69713;BME280;56980;51.826;4.424;2022-09-09T05:11:27;100654.78;;;17.10;73.64
69713;BME280;56980;51.826;4.424;2022-09-09T05:13:53;100664.69;;;17.02;73.95
69713;BME280;56980;51.826;4.424;2022-09-09T05:16:20;100635.16;;;16.86;74.29
69713;BME280;56980;51.826;4.424;2022-09-09T05:18:46;100642.47;;;16.94;74.33
69713;BME280;56980;51.826;4.424;2022-09-09T05:21:13;100634.22;;;16.89;74.61
69713;BME280;56980;51.826;4.424;2022-09-09T05:23:39;100649.66;;;16.92;74.27
69713;BME280;56980;51.826;4.424;2022-09-09T05:26:06;100657.06;;;16.86;75.13
69713;BME280;56980;51.826;4.424;2022-09-09T05:28:34;100654.16;;;16.95;74.38
69713;BME280;56980;51.826;4.424;2022-09-09T05:31:09;100659.38;;;16.93;74.86
69713;BME280;56980;51.826;4.424;2022-09-09T05:33:36;100657.34;;;16.88;75.20
69713;BME280;56980;51.826;4.424;2022-09-09T05:36:14;100659.03;;;16.85;75.42
69713;BME280;56980;51.826;4.424;2022-09-09T05:38:40;100641.19;;;16.90;75.07
69713;BME280;56980;51.826;4.424;2022-09-09T05:41:06;100648.69;;;16.95;75.29
69713;BME280;56980;51.826;4.424;2022-09-09T05:43:32;100647.34;;;16.85;75.54
69713;BME280;56980;51.826;4.424;2022-09-09T05:48:29;100637.34;;;16.76;75.82
69713;BME280;56980;51.826;4.424;2022-09-09T05:50:55;100649.16;;;16.93;75.52
69713;BME280;56980;51.826;4.424;2022-09-09T05:53:20;100641.19;;;16.90;75.71
69713;BME280;56980;51.826;4.424;2022-09-09T05:55:46;100635.47;;;16.93;75.59
69713;BME280;56980;51.826;4.424;2022-09-09T05:58:12;100655.22;;;17.03;75.31
69713;BME280;56980;51.826;4.424;2022-09-09T06:00:39;100646.22;;;16.97;75.17
69713;BME280;56980;51.826;4.424;2022-09-09T06:03:05;100631.19;;;16.87;75.83
69713;BME280;56980;51.826;4.424;2022-09-09T06:05:30;100640.03;;;17.02;75.42
69713;BME280;56980;51.826;4.424;2022-09-09T06:07:55;100646.31;;;17.08;75.04
69713;BME280;56980;51.826;4.424;2022-09-09T06:10:21;100640.81;;;17.08;75.22
69713;BME280;56980;51.826;4.424;2022-09-09T06:12:47;100643.41;;;17.17;74.96
69713;BME280;56980;51.826;4.424;2022-09-09T06:15:12;100628.38;;;17.07;75.14
69713;BME280;56980;51.826;4.424;2022-09-09T06:17:37;100647.88;;;17.20;75.20
69713;BME280;56980;51.826;4.424;2022-09-09T06:20:04;100648.13;;;17.17;75.57
69713;BME280;56980;51.826;4.424;2022-09-09T06:22:30;100668.38;;;17.30;75.57
69713;BME280;56980;51.826;4.424;2022-09-09T06:24:55;100653.66;;;17.28;75.47
69713;BME280;56980;51.826;4.424;2022-09-09T06:27:20;100659.97;;;17.39;75.11
69713;BME280;56980;51.826;4.424;2022-09-09T06:29:46;100659.50;;;17.47;74.75
69713;BME280;56980;51.826;4.424;2022-09-09T06:32:11;100663.47;;;17.46;74.82
69713;BME280;56980;51.826;4.424;2022-09-09T06:34:36;100649.72;;;17.34;75.05
69713;BME280;56980;51.826;4.424;2022-09-09T06:37:02;100662.97;;;17.41;75.09
69713;BME280;56980;51.826;4.424;2022-09-09T06:39:27;100667.28;;;17.54;74.41
69713;BME280;56980;51.826;4.424;2022-09-09T06:41:53;100657.50;;;17.41;74.57
69713;BME280;56980;51.826;4.424;2022-09-09T06:44:19;100664.03;;;17.50;75.03
69713;BME280;56980;51.826;4.424;2022-09-09T06:46:44;100666.50;;;17.48;74.71
69713;BME280;56980;51.826;4.424;2022-09-09T06:49:12;100665.53;;;17.51;74.40
69713;BME280;56980;51.826;4.424;2022-09-09T06:51:38;100659.38;;;17.61;74.00
69713;BME280;56980;51.826;4.424;2022-09-09T06:54:10;100651.84;;;17.56;74.11
69713;BME280;56980;51.826;4.424;2022-09-09T06:56:37;100651.34;;;17.58;74.07
69713;BME280;56980;51.826;4.424;2022-09-09T06:59:06;100666.56;;;17.59;74.52
69713;BME280;56980;51.826;4.424;2022-09-09T07:01:39;100649.88;;;17.57;74.06
69713;BME280;56980;51.826;4.424;2022-09-09T07:04:09;100650.06;;;17.48;74.27
69713;BME280;56980;51.826;4.424;2022-09-09T07:06:37;100657.34;;;17.56;74.21
69713;BME280;56980;51.826;4.424;2022-09-09T07:09:10;100654.31;;;17.54;74.44
69713;BME280;56980;51.826;4.424;2022-09-09T07:11:42;100659.56;;;17.58;74.20
69713;BME280;56980;51.826;4.424;2022-09-09T07:14:08;100656.34;;;17.59;74.55
69713;BME280;56980;51.826;4.424;2022-09-09T07:16:34;100648.59;;;17.58;74.11
69713;BME280;56980;51.826;4.424;2022-09-09T07:19:03;100648.72;;;17.69;73.89
69713;BME280;56980;51.826;4.424;2022-09-09T07:21:29;100620.66;;;17.42;74.01
69713;BME280;56980;51.826;4.424;2022-09-09T07:23:56;100644.72;;;17.70;73.81
69713;BME280;56980;51.826;4.424;2022-09-09T07:26:24;100650.97;;;17.70;73.66
69713;BME280;56980;51.826;4.424;2022-09-09T07:28:49;100651.03;;;17.87;73.55
69713;BME280;56980;51.826;4.424;2022-09-09T07:31:20;100643.97;;;17.64;73.95
69713;BME280;56980;51.826;4.424;2022-09-09T07:33:46;100652.69;;;17.68;74.06
69713;BME280;56980;51.826;4.424;2022-09-09T07:36:19;100661.22;;;17.81;73.64
69713;BME280;56980;51.826;4.424;2022-09-09T07:38:54;100653.66;;;17.65;73.78
69713;BME280;56980;51.826;4.424;2022-09-09T07:41:22;100662.72;;;17.82;73.44
69713;BME280;56980;51.826;4.424;2022-09-09T07:43:49;100642.31;;;17.83;73.23
69713;BME280;56980;51.826;4.424;2022-09-09T07:46:16;100651.81;;;17.93;73.04
69713;BME280;56980;51.826;4.424;2022-09-09T07:48:47;100656.81;;;18.00;72.65
69713;BME280;56980;51.826;4.424;2022-09-09T07:51:17;100659.78;;;17.91;73.11
69713;BME280;56980;51.826;4.424;2022-09-09T07:53:45;100659.59;;;18.06;72.21
69713;BME280;56980;51.826;4.424;2022-09-09T07:56:14;100645.59;;;17.98;72.43
69713;BME280;56980;51.826;4.424;2022-09-09T07:58:41;100648.34;;;17.98;72.61
69713;BME280;56980;51.826;4.424;2022-09-09T08:03:57;100648.38;;;18.09;71.96
69713;BME280;56980;51.826;4.424;2022-09-09T08:06:32;100652.84;;;18.01;72.38
69713;BME280;56980;51.826;4.424;2022-09-09T08:09:00;100653.78;;;17.87;72.43
69713;BME280;56980;51.826;4.424;2022-09-09T08:11:28;100654.38;;;18.08;71.75
69713;BME280;56980;51.826;4.424;2022-09-09T08:13:55;100651.91;;;18.15;71.75
69713;BME280;56980;51.826;4.424;2022-09-09T08:16:30;100657.34;;;18.04;71.82
69713;BME280;56980;51.826;4.424;2022-09-09T08:18:56;100662.56;;;18.02;72.08
69713;BME280;56980;51.826;4.424;2022-09-09T08:21:24;100660.41;;;18.17;71.84
69713;BME280;56980;51.826;4.424;2022-09-09T08:23:52;100660.41;;;18.17;71.82
69713;BME280;56980;51.826;4.424;2022-09-09T08:26:26;100665.16;;;18.28;71.69
69713;BME280;56980;51.826;4.424;2022-09-09T08:28:55;100672.16;;;18.35;71.73
69713;BME280;56980;51.826;4.424;2022-09-09T08:31:29;100674.13;;;18.29;72.90
69713;BME280;56980;51.826;4.424;2022-09-09T08:33:57;100653.91;;;18.20;72.85
69713;BME280;56980;51.826;4.424;2022-09-09T08:36:24;100666.13;;;18.19;73.02
69713;BME280;56980;51.826;4.424;2022-09-09T08:38:52;100673.56;;;18.13;73.69
69713;BME280;56980;51.826;4.424;2022-09-09T08:44:10;100664.88;;;18.26;73.00
69713;BME280;56980;51.826;4.424;2022-09-09T08:46:42;100676.16;;;18.39;72.91
69713;BME280;56980;51.826;4.424;2022-09-09T08:52:19;100668.38;;;18.27;73.23
69713;BME280;56980;51.826;4.424;2022-09-09T08:54:47;100680.66;;;18.37;72.55
69713;BME280;56980;51.826;4.424;2022-09-09T08:57:21;100657.66;;;18.17;72.86
69713;BME280;56980;51.826;4.424;2022-09-09T08:59:51;100679.34;;;18.27;72.76
69713;BME280;56980;51.826;4.424;2022-09-09T09:05:19;100680.88;;;18.39;72.32
69713;BME280;56980;51.826;4.424;2022-09-09T09:10:48;100673.34;;;18.11;73.21
69713;BME280;56980;51.826;4.424;2022-09-09T09:13:17;100679.34;;;18.27;73.54
69713;BME280;56980;51.826;4.424;2022-09-09T09:15:44;100681.88;;;18.36;73.14
69713;BME280;56980;51.826;4.424;2022-09-09T09:18:12;100693.63;;;18.47;72.95
69713;BME280;56980;51.826;4.424;2022-09-09T09:20:49;100661.91;;;18.30;72.90
69713;BME280;56980;51.826;4.424;2022-09-09T09:23:32;100681.34;;;18.20;73.85
69713;BME280;56980;51.826;4.424;2022-09-09T09:26:01;100681.88;;;18.25;73.74
69713;BME280;56980;51.826;4.424;2022-09-09T09:28:29;100682.16;;;18.43;73.08
69713;BME280;56980;51.826;4.424;2022-09-09T09:31:03;100679.94;;;18.53;73.39
69713;BME280;56980;51.826;4.424;2022-09-09T09:36:01;100672.50;;;18.65;73.08
69713;BME280;56980;51.826;4.424;2022-09-09T09:38:28;100672.47;;;18.59;74.00
69713;BME280;56980;51.826;4.424;2022-09-09T09:40:56;100663.53;;;18.64;72.92
69713;BME280;56980;51.826;4.424;2022-09-09T09:43:36;100656.22;;;18.50;74.01
69713;BME280;56980;51.826;4.424;2022-09-09T09:46:05;100664.00;;;18.57;73.83
69713;BME280;56980;51.826;4.424;2022-09-09T09:48:43;100666.94;;;18.48;74.63
69713;BME280;56980;51.826;4.424;2022-09-09T09:51:11;100674.03;;;18.71;74.13
69713;BME280;56980;51.826;4.424;2022-09-09T09:53:39;100678.75;;;18.65;74.92
69713;BME280;56980;51.826;4.424;2022-09-09T09:56:10;100663.47;;;18.53;74.62
69713;BME280;56980;51.826;4.424;2022-09-09T10:03:51;100677.13;;;18.31;75.34
69713;BME280;56980;51.826;4.424;2022-09-09T10:06:33;100664.94;;;18.32;75.01
69713;BME280;56980;51.826;4.424;2022-09-09T10:08:58;100672.44;;;18.53;74.66
69713;BME280;56980;51.826;4.424;2022-09-09T10:11:46;100662.47;;;18.45;75.24
69713;BME280;56980;51.826;4.424;2022-09-09T10:14:22;100681.97;;;18.58;75.21
69713;BME280;56980;51.826;4.424;2022-09-09T10:16:54;100695.19;;;18.59;75.70
69713;BME280;56980;51.826;4.424;2022-09-09T10:19:30;100688.94;;;18.59;75.81
69713;BME280;56980;51.826;4.424;2022-09-09T10:35:30;100685.22;;;18.62;77.19
69713;BME280;56980;51.826;4.424;2022-09-09T10:49:27;100679.25;;;18.86;76.88
69713;BME280;56980;51.826;4.424;2022-09-09T10:55:14;100680.03;;;18.97;76.30
69713;BME280;56980;51.826;4.424;2022-09-09T10:57:49;100664.78;;;19.08;76.37
69713;BME280;56980;51.826;4.424;2022-09-09T11:00:45;100682.53;;;19.18;77.07
69713;BME280;56980;51.826;4.424;2022-09-09T11:03:19;100664.53;;;19.28;76.52
69713;BME280;56980;51.826;4.424;2022-09-09T11:05:49;100665.03;;;19.32;76.33
69713;BME280;56980;51.826;4.424;2022-09-09T11:08:27;100673.00;;;19.47;75.30
69713;BME280;56980;51.826;4.424;2022-09-09T11:11:08;100672.00;;;19.44;74.05
69713;BME280;56980;51.826;4.424;2022-09-09T11:13:55;100678.00;;;19.37;74.98
69713;BME280;56980;51.826;4.424;2022-09-09T11:16:53;100682.28;;;19.32;74.02
69713;BME280;56980;51.826;4.424;2022-09-09T11:25:10;100680.03;;;19.31;72.15
69713;BME280;56980;51.826;4.424;2022-09-09T11:41:39;100671.03;;;19.25;73.04
69713;BME280;56980;51.826;4.424;2022-09-09T11:44:19;100673.78;;;19.19;73.25
69713;BME280;56980;51.826;4.424;2022-09-09T11:46:51;100691.00;;;19.31;72.90
69713;BME280;56980;51.826;4.424;2022-09-09T11:49:43;100692.53;;;18.98;73.94
69713;BME280;56980;51.826;4.424;2022-09-09T11:52:37;100686.50;;;19.00;75.00
69713;BME280;56980;51.826;4.424;2022-09-09T11:57:37;100694.00;;;19.05;75.19
69713;BME280;56980;51.826;4.424;2022-09-09T12:00:04;100696.00;;;19.16;74.61
69713;BME280;56980;51.826;4.424;2022-09-09T12:02:30;100694.75;;;19.33;74.64
69713;BME280;56980;51.826;4.424;2022-09-09T12:05:08;100691.50;;;19.13;75.05
69713;BME280;56980;51.826;4.424;2022-09-09T12:07:52;100697.97;;;18.87;76.27
69713;BME280;56980;51.826;4.424;2022-09-09T12:12:53;100708.72;;;19.08;76.79
69713;BME280;56980;51.826;4.424;2022-09-09T12:15:28;100707.50;;;18.92;77.30
69713;BME280;56980;51.826;4.424;2022-09-09T12:17:56;100700.44;;;18.63;78.28
69713;BME280;56980;51.826;4.424;2022-09-09T12:20:50;100695.75;;;18.97;76.81
69713;BME280;56980;51.826;4.424;2022-09-09T12:23:33;100704.22;;;18.82;77.15
69713;BME280;56980;51.826;4.424;2022-09-09T12:29:04;100701.69;;;18.56;77.22
69713;BME280;56980;51.826;4.424;2022-09-09T12:34:17;100718.22;;;18.79;77.41
69713;BME280;56980;51.826;4.424;2022-09-09T12:36:44;100732.59;;;18.51;78.75
69713;BME280;56980;51.826;4.424;2022-09-09T12:40:02;100657.47;;;18.49;78.27
69713;BME280;56980;51.826;4.424;2022-09-09T12:42:19;100675.19;;;18.48;78.88
69713;BME280;56980;51.826;4.424;2022-09-09T12:45:01;100703.75;;;18.13;80.43
69713;BME280;56980;51.826;4.424;2022-09-09T12:50:27;100720.00;;;18.23;80.74
69713;BME280;56980;51.826;4.424;2022-09-09T12:53:02;100721.66;;;18.03;82.63
69713;BME280;56980;51.826;4.424;2022-09-09T12:55:31;100712.81;;;18.31;82.27
69713;BME280;56980;51.826;4.424;2022-09-09T12:57:59;100722.84;;;18.50;82.62
69713;BME280;56980;51.826;4.424;2022-09-09T13:00:26;100716.38;;;18.59;82.32
69713;BME280;56980;51.826;4.424;2022-09-09T13:03:02;100722.19;;;18.72;82.42
69713;BME280;56980;51.826;4.424;2022-09-09T13:05:38;100705.19;;;18.68;82.01
69713;BME280;56980;51.826;4.424;2022-09-09T13:08:06;100708.22;;;18.76;81.79
69713;BME280;56980;51.826;4.424;2022-09-09T13:10:36;100704.00;;;18.91;81.28
69713;BME280;56980;51.826;4.424;2022-09-09T13:13:05;100702.75;;;19.04;81.17
69713;BME280;56980;51.826;4.424;2022-09-09T13:15:39;100717.97;;;19.27;79.85
69713;BME280;56980;51.826;4.424;2022-09-09T13:18:07;100723.72;;;19.18;79.86
69713;BME280;56980;51.826;4.424;2022-09-09T13:20:37;100732.47;;;19.11;80.18
69713;BME280;56980;51.826;4.424;2022-09-09T13:23:02;100734.47;;;19.16;79.51
69713;BME280;56980;51.826;4.424;2022-09-09T13:25:28;100734.44;;;18.82;80.25
69713;BME280;56980;51.826;4.424;2022-09-09T13:35:57;100747.13;;;18.74;79.87
69713;BME280;56980;51.826;4.424;2022-09-09T13:38:24;100743.13;;;18.64;80.05
69713;BME280;56980;51.826;4.424;2022-09-09T13:43:25;100742.19;;;18.89;79.31
69713;BME280;56980;51.826;4.424;2022-09-09T13:45:59;100747.88;;;18.80;79.30
69713;BME280;56980;51.826;4.424;2022-09-09T13:48:25;100743.88;;;18.70;79.20
69713;BME280;56980;51.826;4.424;2022-09-09T13:50:56;100729.50;;;18.33;80.65
69713;BME280;56980;51.826;4.424;2022-09-09T13:53:22;100723.53;;;18.34;80.03
69713;BME280;56980;51.826;4.424;2022-09-09T13:55:47;100721.50;;;18.24;81.16
69713;BME280;56980;51.826;4.424;2022-09-09T13:58:18;100716.66;;;18.55;80.66
69713;BME280;56980;51.826;4.424;2022-09-09T14:00:45;100715.91;;;18.60;80.52
69713;BME280;56980;51.826;4.424;2022-09-09T14:03:11;100718.69;;;18.72;79.78
69713;BME280;56980;51.826;4.424;2022-09-09T14:05:36;100716.16;;;18.57;80.15
69713;BME280;56980;51.826;4.424;2022-09-09T14:08:07;100723.16;;;18.69;79.85
69713;BME280;56980;51.826;4.424;2022-09-09T14:10:33;100735.19;;;18.83;79.27
69713;BME280;56980;51.826;4.424;2022-09-09T14:13:02;100732.91;;;18.76;80.08
69713;BME280;56980;51.826;4.424;2022-09-09T14:15:28;100719.47;;;18.83;79.15
69713;BME280;56980;51.826;4.424;2022-09-09T14:17:54;100729.19;;;18.95;78.92
69713;BME280;56980;51.826;4.424;2022-09-09T14:20:20;100727.97;;;18.96;79.17
69713;BME280;56980;51.826;4.424;2022-09-09T14:22:45;100732.44;;;18.88;79.27
69713;BME280;56980;51.826;4.424;2022-09-09T14:25:11;100731.41;;;18.69;79.89
69713;BME280;56980;51.826;4.424;2022-09-09T14:27:39;100725.44;;;18.76;79.02
69713;BME280;56980;51.826;4.424;2022-09-09T14:30:05;100724.94;;;18.72;79.70
69713;BME280;56980;51.826;4.424;2022-09-09T14:32:31;100728.97;;;19.05;78.69
69713;BME280;56980;51.826;4.424;2022-09-09T14:34:56;100717.00;;;19.19;78.43
69713;BME280;56980;51.826;4.424;2022-09-09T14:37:21;100742.47;;;19.36;77.32
69713;BME280;56980;51.826;4.424;2022-09-09T14:39:47;100734.44;;;18.93;78.57
69713;BME280;56980;51.826;4.424;2022-09-09T14:42:14;100737.47;;;19.18;78.66
69713;BME280;56980;51.826;4.424;2022-09-09T14:44:39;100730.50;;;19.50;77.64
69713;BME280;56980;51.826;4.424;2022-09-09T14:47:06;100739.47;;;19.45;77.77
69713;BME280;56980;51.826;4.424;2022-09-09T14:49:33;100733.94;;;19.67;77.86
69713;BME280;56980;51.826;4.424;2022-09-09T14:51:58;100726.22;;;19.38;78.13
69713;BME280;56980;51.826;4.424;2022-09-09T14:54:24;100745.47;;;19.38;76.42
69713;BME280;56980;51.826;4.424;2022-09-09T14:56:49;100744.47;;;19.47;78.26
69713;BME280;56980;51.826;4.424;2022-09-09T14:59:14;100737.97;;;19.55;77.99
69713;BME280;56980;51.826;4.424;2022-09-09T15:01:40;100752.47;;;19.72;77.72
69713;BME280;56980;51.826;4.424;2022-09-09T15:04:06;100741.22;;;19.70;77.12
69713;BME280;56980;51.826;4.424;2022-09-09T15:06:34;100752.47;;;19.72;76.55
69713;BME280;56980;51.826;4.424;2022-09-09T15:09:01;100763.97;;;19.54;77.77
69713;BME280;56980;51.826;4.424;2022-09-09T15:11:29;100758.19;;;19.86;76.60
69713;BME280;56980;51.826;4.424;2022-09-09T15:13:55;100759.44;;;19.79;76.47
69713;BME280;56980;51.826;4.424;2022-09-09T15:16:23;100762.06;;;20.24;74.51
69713;BME280;56980;51.826;4.424;2022-09-09T15:18:51;100747.91;;;19.92;75.29
69713;BME280;56980;51.826;4.424;2022-09-09T15:21:20;100755.94;;;19.78;75.28